Time;durP1;ratioP1;P1;durP2;ratioP2;P2;SDS_P1;SDS_P2;PMS_P1;PMS_P2;Temp;Humidity;BMP_temperature;BMP_pressure;BME280_temperature;BME280_humidity;BME280_pressure;Samples;Min_cycle;Max_cycle;Signal;HPM_P1;HPM_P2
2023/06/23 00:01:20;;;;;;;9.15;6.15;;;18.30;99.90;;;;;;5048543;28;20148;-86
2023/06/23 00:03:46;;;;;;;10.18;6.10;;;18.30;99.90;;;;;;5048124;28;20467;-86
2023/06/23 00:06:15;;;;;;;10.15;5.50;;;18.20;99.90;;;;;;5031924;28;20056;-86
2023/06/23 00:08:41;;;;;;;11.35;5.57;;;18.20;99.90;;;;;;5047619;28;20507;-86
2023/06/23 00:11:08;;;;;;;9.82;7.10;;;18.20;99.90;;;;;;5015794;28;20486;-86
2023/06/23 00:13:35;;;;;;;12.07;5.25;;;17.80;99.90;;;;;;5046752;28;20071;-86
2023/06/23 00:16:04;;;;;;;6.38;5.45;;;18.20;99.90;;;;;;5065601;28;20568;-86
2023/06/23 00:18:30;;;;;;;7.88;5.72;;;18.20;99.90;;;;;;5031998;28;20051;-86
2023/06/23 00:20:59;;;;;;;10.38;5.25;;;18.20;99.90;;;;;;5032005;28;20486;-86
2023/06/23 00:23:25;;;;;;;6.65;5.07;;;18.20;99.90;;;;;;5048189;28;20149;-86
2023/06/23 00:25:51;;;;;;;9.85;4.53;;;18.20;99.90;;;;;;5046514;28;20048;-86
2023/06/23 00:28:17;;;;;;;9.43;5.10;;;18.10;99.90;;;;;;5031839;28;20055;-85
2023/06/23 00:30:43;;;;;;;9.05;4.47;;;18.10;99.90;;;;;;5014888;28;20112;-86
2023/06/23 00:33:09;;;;;;;9.00;4.93;;;18.10;99.90;;;;;;5051023;28;20473;-86
2023/06/23 00:35:34;;;;;;;7.55;4.25;;;18.10;99.90;;;;;;5033412;28;20552;-86
2023/06/23 00:38:00;;;;;;;9.23;3.78;;;18.10;99.90;;;;;;5033223;28;20083;-85
2023/06/23 00:40:26;;;;;;;5.78;3.83;;;18.10;99.90;;;;;;5034541;28;20051;-86
2023/06/23 00:42:55;;;;;;;4.93;3.90;;;18.10;99.90;;;;;;5004723;28;20149;-86
2023/06/23 00:45:22;;;;;;;7.40;4.15;;;18.10;99.90;;;;;;5032917;28;20653;-85
2023/06/23 00:47:47;;;;;;;5.38;3.28;;;18.10;99.90;;;;;;5030270;28;20037;-85
2023/06/23 00:50:18;;;;;;;6.80;3.85;;;18.10;99.90;;;;;;5048512;28;20118;-86
2023/06/23 00:52:52;;;;;;;6.70;3.78;;;18.00;99.90;;;;;;5030795;28;20091;-86
2023/06/23 00:55:22;;;;;;;10.55;3.50;;;18.00;99.90;;;;;;5015453;28;20044;-86
2023/06/23 00:57:50;;;;;;;6.10;3.30;;;18.10;99.90;;;;;;5031615;28;20140;-86
2023/06/23 01:00:18;;;;;;;5.90;3.13;;;18.00;99.90;;;;;;5013551;28;20080;-86
2023/06/23 01:02:48;;;;;;;6.43;3.50;;;18.00;99.90;;;;;;5031896;28;20048;-86
2023/06/23 01:05:20;;;;;;;8.05;3.45;;;18.00;99.90;;;;;;5045927;28;20135;-86
2023/06/23 01:08:08;;;;;;;7.73;3.80;;;18.10;99.90;;;;;;5032650;28;20106;-86
2023/06/23 01:10:35;;;;;;;4.82;2.85;;;18.10;99.90;;;;;;5031025;28;20083;-85
2023/06/23 01:13:33;;;;;;;8.32;3.58;;;18.10;99.90;;;;;;5046349;28;20497;-85
2023/06/23 01:16:11;;;;;;;7.72;3.38;;;18.10;99.90;;;;;;5031404;28;20197;-86
2023/06/23 01:18:43;;;;;;;6.47;3.45;;;18.10;99.90;;;;;;5030413;28;20133;-86
2023/06/23 01:21:12;;;;;;;5.73;2.50;;;18.10;99.90;;;;;;5030640;28;20045;-86
2023/06/23 01:24:23;;;;;;;7.43;3.45;;;18.10;99.90;;;;;;5047664;28;20055;-86
2023/06/23 01:27:17;;;;;;;11.45;4.10;;;18.00;99.90;;;;;;4992103;28;20105;-86
2023/06/23 01:29:47;;;;;;;6.70;3.50;;;18.00;99.90;;;;;;5046964;28;20101;-84
2023/06/23 01:32:21;;;;;;;7.75;3.70;;;18.00;99.90;;;;;;5030848;28;20080;-86
2023/06/23 01:34:52;;;;;;;4.90;3.22;;;18.00;99.90;;;;;;5029278;28;20048;-86
2023/06/23 01:37:25;;;;;;;6.60;3.27;;;18.00;99.90;;;;;;5031105;28;20052;-88
2023/06/23 01:39:56;;;;;;;6.05;3.20;;;17.90;99.90;;;;;;5030039;28;20051;-86
2023/06/23 01:42:30;;;;;;;6.50;3.13;;;17.90;99.90;;;;;;5032378;28;20056;-86
2023/06/23 01:45:00;;;;;;;4.35;2.67;;;17.90;99.90;;;;;;5048888;28;20401;-87
2023/06/23 01:47:33;;;;;;;3.92;2.47;;;17.90;99.90;;;;;;5046341;28;20105;-85
2023/06/23 01:50:02;;;;;;;6.93;2.67;;;17.90;99.90;;;;;;5031046;28;20170;-87
2023/06/23 01:52:31;;;;;;;7.53;3.28;;;17.90;99.90;;;;;;5046208;28;20056;-86
2023/06/23 01:54:57;;;;;;;6.05;3.10;;;17.80;99.90;;;;;;5047411;28;20494;-85
2023/06/23 01:57:25;;;;;;;4.40;2.65;;;17.80;99.90;;;;;;5030151;28;20055;-86
2023/06/23 01:59:52;;;;;;;6.65;2.85;;;17.80;99.90;;;;;;5046532;28;20051;-85
2023/06/23 02:02:19;;;;;;;9.02;3.22;;;17.90;99.90;;;;;;5030629;28;20041;-86
2023/06/23 02:04:47;;;;;;;9.40;3.17;;;17.80;99.90;;;;;;5045699;28;20080;-86
2023/06/23 02:07:16;;;;;;;6.05;2.78;;;17.90;99.90;;;;;;5047521;28;20155;-86
2023/06/23 02:09:43;;;;;;;6.95;2.80;;;17.80;99.90;;;;;;5031495;28;20045;-85
2023/06/23 02:12:10;;;;;;;4.25;2.60;;;17.80;99.90;;;;;;5037508;28;20049;-85
2023/06/23 02:14:38;;;;;;;5.75;2.60;;;17.80;99.90;;;;;;5032568;28;20049;-84
2023/06/23 02:17:11;;;;;;;6.38;3.05;;;17.80;99.90;;;;;;5036262;28;20060;-85
2023/06/23 02:19:44;;;;;;;6.03;2.45;;;17.80;99.90;;;;;;5024821;28;20409;-85
2023/06/23 02:22:13;;;;;;;4.35;2.60;;;17.90;99.90;;;;;;5050152;28;20402;-87
2023/06/23 02:24:40;;;;;;;5.10;3.05;;;17.90;99.90;;;;;;5050135;28;20057;-85
2023/06/23 02:27:07;;;;;;;7.63;3.15;;;17.90;99.90;;;;;;5016702;28;20044;-85
2023/06/23 02:29:38;;;;;;;6.38;2.83;;;17.90;99.90;;;;;;5050308;28;20048;-85
2023/06/23 02:32:05;;;;;;;4.20;2.45;;;17.90;99.90;;;;;;5033722;28;20473;-85
2023/06/23 02:34:31;;;;;;;5.82;2.60;;;17.90;99.90;;;;;;5016914;28;20098;-86
2023/06/23 02:37:03;;;;;;;8.18;2.88;;;17.90;99.90;;;;;;5050873;28;20568;-86
2023/06/23 02:39:39;;;;;;;5.95;3.00;;;17.90;99.90;;;;;;5048705;28;20494;-86
2023/06/23 02:42:06;;;;;;;4.40;2.25;;;17.90;99.90;;;;;;5033697;28;20044;-86
2023/06/23 02:44:39;;;;;;;3.80;2.63;;;17.90;99.90;;;;;;5049554;28;20044;-87
2023/06/23 02:47:10;;;;;;;4.43;2.20;;;17.90;99.90;;;;;;5050016;28;20193;-86
2023/06/23 02:49:38;;;;;;;6.10;2.60;;;17.90;99.90;;;;;;5034104;28;20091;-86
2023/06/23 02:52:05;;;;;;;5.22;2.60;;;17.90;99.90;;;;;;5016007;28;20117;-86
2023/06/23 02:54:36;;;;;;;3.97;2.40;;;17.90;99.90;;;;;;5051342;28;20048;-86
2023/06/23 02:57:03;;;;;;;5.70;2.78;;;17.90;99.90;;;;;;5049759;28;20455;-87
2023/06/23 02:59:32;;;;;;;4.85;2.60;;;17.90;99.90;;;;;;5049934;28;20052;-86
2023/06/23 03:01:59;;;;;;;7.00;3.10;;;17.90;99.90;;;;;;5033121;28;20047;-85
2023/06/23 03:04:25;;;;;;;7.35;2.65;;;18.00;99.90;;;;;;5032111;28;20050;-86
2023/06/23 03:06:52;;;;;;;4.93;2.67;;;17.80;99.90;;;;;;5033372;28;20135;-86
2023/06/23 03:09:17;;;;;;;6.00;3.10;;;17.80;99.90;;;;;;5031522;28;20087;-86
2023/06/23 03:11:43;;;;;;;5.38;3.40;;;17.80;99.90;;;;;;5033249;28;20080;-86
2023/06/23 03:14:09;;;;;;;3.95;2.60;;;17.80;99.90;;;;;;5032322;28;20052;-86
2023/06/23 03:16:43;;;;;;;4.88;3.28;;;17.70;99.90;;;;;;4999816;28;20055;-86
2023/06/23 03:19:38;;;;;;;4.93;3.17;;;17.70;99.90;;;;;;5049657;28;20052;-86
2023/06/23 03:22:32;;;;;;;8.38;3.13;;;17.70;99.90;;;;;;5048177;28;20048;-86
2023/06/23 03:25:02;;;;;;;5.70;2.85;;;17.70;99.90;;;;;;5032607;28;20470;-86
2023/06/23 03:27:31;;;;;;;4.22;2.63;;;17.70;99.90;;;;;;5032661;28;20032;-86
2023/06/23 03:30:05;;;;;;;8.30;3.25;;;17.70;99.90;;;;;;5015673;28;20400;-87
2023/06/23 03:32:43;;;;;;;5.30;3.28;;;17.60;99.90;;;;;;5049230;28;20091;-86
2023/06/23 03:35:13;;;;;;;6.35;2.35;;;17.60;99.90;;;;;;5031103;28;20058;-85
2023/06/23 03:37:48;;;;;;;5.55;2.45;;;17.60;99.90;;;;;;5066929;28;20084;-85
2023/06/23 03:40:17;;;;;;;5.78;2.95;;;17.60;99.90;;;;;;5032521;28;20041;-85
2023/06/23 03:42:55;;;;;;;4.88;3.03;;;17.50;99.90;;;;;;5032450;28;20045;-86
2023/06/23 03:45:24;;;;;;;4.65;3.00;;;17.50;99.90;;;;;;5037041;28;20079;-86
2023/06/23 03:47:56;;;;;;;9.93;3.00;;;17.40;99.90;;;;;;5057009;28;20044;-86
2023/06/23 03:50:26;;;;;;;5.18;3.28;;;17.40;99.90;;;;;;5069954;28;20049;-85
2023/06/23 03:52:54;;;;;;;3.83;2.92;;;17.40;99.90;;;;;;5063661;28;20052;-85
2023/06/23 03:55:22;;;;;;;4.38;2.80;;;17.30;99.90;;;;;;5049399;28;20157;-86
2023/06/23 03:57:51;;;;;;;6.35;3.25;;;17.30;99.90;;;;;;5048859;28;20119;-86
2023/06/23 04:00:19;;;;;;;4.00;2.70;;;17.20;99.90;;;;;;5031447;28;20050;-85
2023/06/23 04:02:47;;;;;;;3.60;3.00;;;17.20;99.90;;;;;;5033087;28;20493;-84
2023/06/23 04:05:15;;;;;;;5.82;2.95;;;17.10;99.90;;;;;;5048124;28;20094;-84
2023/06/23 04:07:45;;;;;;;5.50;3.55;;;17.10;99.90;;;;;;5049112;28;20131;-84
2023/06/23 04:10:13;;;;;;;5.38;2.95;;;17.10;99.90;;;;;;5048915;28;20074;-84
2023/06/23 04:12:40;;;;;;;8.43;3.03;;;17.00;99.90;;;;;;5031914;28;20124;-85
2023/06/23 04:15:09;;;;;;;4.63;2.88;;;17.00;99.90;;;;;;5048497;28;20040;-85
2023/06/23 04:17:40;;;;;;;4.50;3.28;;;17.00;99.90;;;;;;5014714;28;20457;-85
2023/06/23 04:20:07;;;;;;;5.28;3.10;;;17.00;99.90;;;;;;5048506;28;20041;-86
2023/06/23 04:22:36;;;;;;;5.90;3.00;;;17.00;99.90;;;;;;5031464;28;20040;-86
2023/06/23 04:25:05;;;;;;;4.32;3.20;;;17.00;99.90;;;;;;5048523;28;20110;-85
2023/06/23 04:27:32;;;;;;;6.05;3.55;;;17.00;99.90;;;;;;5031854;28;20044;-85
2023/06/23 04:29:59;;;;;;;5.75;3.97;;;17.00;99.90;;;;;;5030897;28;20075;-85
2023/06/23 04:32:25;;;;;;;5.70;3.45;;;17.00;99.90;;;;;;5032067;28;20099;-85
2023/06/23 04:34:51;;;;;;;6.03;3.88;;;17.00;99.90;;;;;;5014062;28;20044;-85
2023/06/23 04:37:27;;;;;;;6.53;3.97;;;17.00;99.90;;;;;;5015698;28;20043;-84
2023/06/23 04:40:11;;;;;;;4.85;3.35;;;17.10;99.90;;;;;;5030985;28;20099;-85
2023/06/23 04:42:47;;;;;;;7.50;3.35;;;17.20;99.90;;;;;;5031205;28;20048;-85
2023/06/23 04:45:19;;;;;;;6.68;3.53;;;17.20;99.90;;;;;;5031823;28;20105;-86
2023/06/23 04:47:52;;;;;;;8.33;4.17;;;17.20;99.90;;;;;;5030205;28;20131;-87
2023/06/23 04:50:21;;;;;;;8.77;3.75;;;17.30;99.90;;;;;;5048338;28;20047;-87
2023/06/23 04:52:52;;;;;;;5.55;3.78;;;17.30;99.90;;;;;;5030787;28;20100;-87
2023/06/23 04:55:20;;;;;;;7.88;4.60;;;17.30;99.90;;;;;;5031109;28;20070;-86
2023/06/23 04:57:49;;;;;;;5.57;3.67;;;17.30;99.90;;;;;;5031607;28;20323;-84
2023/06/23 05:00:20;;;;;;;7.82;4.13;;;17.40;99.90;;;;;;5047711;28;20622;-87
2023/06/23 05:02:48;;;;;;;5.45;4.00;;;17.40;99.90;;;;;;5048160;28;20067;-89
2023/06/23 05:05:21;;;;;;;7.15;4.25;;;17.40;99.90;;;;;;5029830;28;20037;-87
2023/06/23 05:07:48;;;;;;;;;;;17.50;99.90;;;;;;5047836;28;20044;-87
2023/06/23 05:10:15;;;;;;;5.60;4.43;;;17.50;99.90;;;;;;5047255;28;20439;-86
2023/06/23 05:12:41;;;;;;;8.20;4.00;;;17.60;99.90;;;;;;5030480;28;20032;-86
2023/06/23 05:15:09;;;;;;;7.63;4.28;;;17.60;99.90;;;;;;5016630;28;20044;-85
2023/06/23 05:17:39;;;;;;;5.82;4.18;;;17.60;99.90;;;;;;5067828;28;20076;-88
2023/06/23 05:20:07;;;;;;;8.77;4.00;;;17.70;99.90;;;;;;5047439;28;20096;-89
2023/06/23 05:22:35;;;;;;;6.25;4.68;;;17.80;99.90;;;;;;5049875;28;20040;-88
2023/06/23 05:25:04;;;;;;;6.72;5.07;;;17.80;99.90;;;;;;5070262;28;20055;-86
2023/06/23 05:27:32;;;;;;;11.55;5.43;;;17.80;99.90;;;;;;5052480;28;20059;-89
2023/06/23 05:30:00;;;;;;;8.57;4.82;;;17.80;99.90;;;;;;5035201;28;20045;-88
2023/06/23 05:32:30;;;;;;;9.70;4.30;;;17.80;99.90;;;;;;5031616;28;20037;-88
2023/06/23 05:35:01;;;;;;;6.68;4.07;;;17.30;99.90;;;;;;5047096;28;20054;-87
2023/06/23 05:37:27;;;;;;;10.65;5.53;;;17.80;99.90;;;;;;5031204;28;20180;-88
2023/06/23 05:39:56;;;;;;;9.73;5.15;;;17.80;99.90;;;;;;5030643;28;20404;-87
2023/06/23 05:42:29;;;;;;;8.32;4.60;;;17.80;99.90;;;;;;5032207;28;20573;-84
2023/06/23 05:44:55;;;;;;;8.35;4.80;;;17.80;99.90;;;;;;5047703;28;20171;-84
2023/06/23 05:47:25;;;;;;;7.07;4.80;;;17.80;99.90;;;;;;5064763;28;20072;-85
2023/06/23 05:49:54;;;;;;;7.30;4.53;;;17.80;99.90;;;;;;5048016;28;20048;-85
2023/06/23 05:52:22;;;;;;;8.63;4.60;;;17.80;99.90;;;;;;5048732;28;20049;-85
2023/06/23 05:54:54;;;;;;;6.25;4.68;;;17.80;99.90;;;;;;5051224;28;20080;-91
2023/06/23 05:57:30;;;;;;;4.90;3.43;;;17.80;99.90;;;;;;5019861;28;20135;-96
2023/06/23 06:00:07;;;;;;;9.70;4.47;;;17.80;99.90;;;;;;5034405;28;20287;-87
2023/06/23 06:02:35;;;;;;;8.02;4.63;;;17.80;99.90;;;;;;5051821;28;20052;-88
2023/06/23 06:05:05;;;;;;;10.18;5.18;;;17.80;99.90;;;;;;5033902;28;20398;-86
2023/06/23 06:07:32;;;;;;;8.25;5.00;;;17.90;99.90;;;;;;5035106;28;20036;-87
2023/06/23 06:10:02;;;;;;;5.97;4.40;;;17.90;99.90;;;;;;5017309;28;20037;-87
2023/06/23 06:12:29;;;;;;;9.65;5.05;;;17.90;99.90;;;;;;5050428;28;20044;-88
2023/06/23 06:15:00;;;;;;;8.30;5.05;;;18.10;99.90;;;;;;5050191;28;20049;-87
2023/06/23 06:17:27;;;;;;;6.03;4.47;;;18.30;99.90;;;;;;5033179;28;20045;-88
2023/06/23 06:19:59;;;;;;;7.68;4.85;;;18.40;99.90;;;;;;5017957;28;20043;-85
2023/06/23 06:22:26;;;;;;;9.90;5.47;;;18.70;99.90;;;;;;5033923;28;20098;-86
2023/06/23 06:24:53;;;;;;;9.32;5.10;;;18.90;99.90;;;;;;5033662;28;20135;-86
2023/06/23 06:27:21;;;;;;;8.38;5.22;;;19.00;99.90;;;;;;5015814;28;20374;-85
2023/06/23 06:29:49;;;;;;;9.63;5.75;;;19.20;99.90;;;;;;5049303;28;20043;-86
2023/06/23 06:32:17;;;;;;;7.78;4.90;;;19.30;99.90;;;;;;5048730;28;20048;-86
2023/06/23 06:34:44;;;;;;;5.28;4.22;;;19.50;99.90;;;;;;5032016;28;20139;-86
2023/06/23 06:37:10;;;;;;;9.38;4.15;;;19.70;99.90;;;;;;5067185;28;20055;-86
2023/06/23 06:39:37;;;;;;;5.70;4.40;;;19.80;99.90;;;;;;5031659;28;20044;-88
2023/06/23 06:42:04;;;;;;;7.95;4.40;;;19.90;99.90;;;;;;5032787;28;20090;-87
2023/06/23 06:44:30;;;;;;;4.55;3.35;;;20.00;99.90;;;;;;5047971;28;20075;-86
2023/06/23 06:46:56;;;;;;;7.28;3.80;;;20.00;99.90;;;;;;5031821;28;20436;-86
2023/06/23 06:49:24;;;;;;;9.43;3.65;;;20.10;99.90;;;;;;5031432;28;20056;-87
2023/06/23 06:51:51;;;;;;;6.55;4.50;;;20.20;99.90;;;;;;5031383;28;20682;-86
2023/06/23 06:54:17;;;;;;;4.05;3.28;;;20.30;99.90;;;;;;5033183;28;20041;-86
2023/06/23 06:56:43;;;;;;;5.47;3.17;;;20.50;99.90;;;;;;5080062;28;20714;-88
2023/06/23 06:59:09;;;;;;;8.85;5.30;;;20.60;99.90;;;;;;5057224;28;20090;-88
2023/06/23 07:01:37;;;;;;;5.13;3.00;;;20.70;99.90;;;;;;5039442;28;20041;-91
2023/06/23 07:04:05;;;;;;;5.82;2.97;;;20.90;99.90;;;;;;5043953;28;20066;-90
2023/06/23 07:06:31;;;;;;;3.90;2.75;;;21.00;99.90;;;;;;5016712;28;20043;-87
2023/06/23 07:08:57;;;;;;;5.75;2.55;;;21.10;99.90;;;;;;5015256;28;20051;-88
2023/06/23 07:11:23;;;;;;;2.70;2.10;;;21.20;99.90;;;;;;5048385;28;20048;-86
2023/06/23 07:13:48;;;;;;;4.20;2.63;;;21.40;99.90;;;;;;5048228;28;20048;-87
2023/06/23 07:16:14;;;;;;;3.67;2.40;;;21.50;99.90;;;;;;5015397;28;20037;-85
2023/06/23 07:18:40;;;;;;;3.33;2.17;;;21.70;99.90;;;;;;5030769;28;20055;-87
2023/06/23 07:21:06;;;;;;;3.20;2.53;;;21.90;99.90;;;;;;5015660;28;20149;-86
2023/06/23 07:23:31;;;;;;;3.38;2.38;;;22.00;99.90;;;;;;5013947;28;20620;-85
2023/06/23 07:26:00;;;;;;;3.33;2.25;;;22.10;99.90;;;;;;5013997;28;20148;-87
2023/06/23 07:28:25;;;;;;;4.03;2.25;;;22.20;99.90;;;;;;5031614;28;20481;-87
2023/06/23 07:30:51;;;;;;;2.72;1.75;;;22.30;99.90;;;;;;5048261;28;20036;-87
2023/06/23 07:33:17;;;;;;;2.65;1.65;;;22.40;99.90;;;;;;5033710;28;20037;-88
2023/06/23 07:35:43;;;;;;;4.22;2.15;;;22.40;99.90;;;;;;5033783;28;20485;-88
2023/06/23 07:38:09;;;;;;;2.78;1.98;;;22.50;99.90;;;;;;5016891;28;20044;-90
2023/06/23 07:40:34;;;;;;;2.33;1.70;;;22.50;99.90;;;;;;4998653;28;20086;-89
2023/06/23 07:43:03;;;;;;;2.92;1.90;;;21.10;99.90;;;;;;5031853;28;20550;-87
2023/06/23 07:45:29;;;;;;;3.35;1.77;;;22.50;99.90;;;;;;5032645;28;20451;-89
2023/06/23 07:47:55;;;;;;;3.22;1.33;;;22.60;99.90;;;;;;5031418;28;20045;-90
2023/06/23 07:50:20;;;;;;;3.05;1.80;;;22.70;99.90;;;;;;5001093;28;20084;-90
2023/06/23 07:52:55;;;;;;;3.38;1.60;;;22.80;99.90;;;;;;4999455;28;20044;-91
2023/06/23 07:55:21;;;;;;;2.42;1.77;;;23.00;99.90;;;;;;5032841;28;20398;-93
2023/06/23 07:57:47;;;;;;;2.83;1.88;;;23.00;99.90;;;;;;5034461;28;20079;-93
2023/06/23 08:00:14;;;;;;;4.53;1.60;;;23.00;99.90;;;;;;5019726;28;20494;-90
2023/06/23 08:02:43;;;;;;;2.53;1.67;;;23.20;99.90;;;;;;5033007;28;20127;-91
2023/06/23 08:05:09;;;;;;;4.35;2.33;;;23.20;99.90;;;;;;5033171;28;20128;-89
2023/06/23 08:07:35;;;;;;;3.25;1.60;;;23.20;99.90;;;;;;5016929;28;20122;-91
2023/06/23 08:10:01;;;;;;;2.25;1.40;;;23.30;99.90;;;;;;5016419;28;20078;-91
2023/06/23 08:12:27;;;;;;;3.63;1.70;;;23.30;99.90;;;;;;5016892;28;20457;-92
2023/06/23 08:14:52;;;;;;;2.90;1.70;;;23.40;99.90;;;;;;5014827;28;20044;-92
2023/06/23 08:17:18;;;;;;;2.63;1.65;;;23.50;99.90;;;;;;5016639;28;20105;-92
2023/06/23 08:19:44;;;;;;;3.10;1.88;;;23.60;99.90;;;;;;5033703;28;20568;-93
2023/06/23 08:22:10;;;;;;;3.15;2.10;;;23.60;99.90;;;;;;5002922;28;20135;-92
2023/06/23 08:24:35;;;;;;;2.15;1.48;;;23.70;99.90;;;;;;5019804;28;20049;-95
2023/06/23 08:27:01;;;;;;;2.53;1.30;;;23.70;99.90;;;;;;5000705;28;20037;-92
2023/06/23 08:29:27;;;;;;;3.03;1.40;;;23.70;99.90;;;;;;5022258;28;20035;-90
2023/06/23 08:31:53;;;;;;;2.20;1.80;;;23.80;99.90;;;;;;5038688;28;20047;-92
2023/06/23 08:34:18;;;;;;;4.63;1.70;;;23.90;99.90;;;;;;5023030;28;20561;-93
2023/06/23 08:36:44;;;;;;;3.00;2.00;;;24.00;99.90;;;;;;5017790;28;20055;-93
2023/06/23 08:39:10;;;;;;;3.60;2.95;;;24.00;99.90;;;;;;5016852;28;20045;-90
2023/06/23 08:41:41;;;;;;;4.47;2.25;;;24.10;99.90;;;;;;5015647;28;20044;-89
2023/06/23 08:44:10;;;;;;;3.53;2.40;;;24.20;99.90;;;;;;5016623;28;20386;-89
2023/06/23 08:46:40;;;;;;;3.10;1.88;;;24.30;99.90;;;;;;5017243;28;20091;-92
2023/06/23 08:49:08;;;;;;;5.45;2.35;;;24.30;99.90;;;;;;5033229;28;20068;-89
2023/06/23 08:51:34;;;;;;;4.65;2.85;;;24.40;99.90;;;;;;5051080;28;20094;-93
2023/06/23 08:54:01;;;;;;;4.80;1.90;;;24.40;99.90;;;;;;5016708;28;20078;-93
2023/06/23 08:56:28;;;;;;;4.13;2.30;;;23.90;99.90;;;;;;5033053;28;20135;-94
2023/06/23 08:58:54;;;;;;;5.35;2.90;;;24.50;99.90;;;;;;5017022;28;20043;-93
2023/06/23 09:01:19;;;;;;;3.15;2.03;;;24.40;99.90;;;;;;5015992;28;20036;-94
2023/06/23 09:03:45;;;;;;;4.75;2.28;;;24.50;99.90;;;;;;5000688;28;20144;-93
2023/06/23 09:06:11;;;;;;;4.32;2.15;;;24.50;99.90;;;;;;5016044;28;20044;-93
2023/06/23 09:08:37;;;;;;;5.43;1.90;;;24.70;99.90;;;;;;5016577;28;20052;-90
2023/06/23 09:11:03;;;;;;;3.65;1.75;;;24.80;99.90;;;;;;5014870;28;20485;-92
2023/06/23 09:13:35;;;;;;;7.63;4.50;;;24.90;99.80;;;;;;4999285;28;20079;-92
2023/06/23 09:16:03;;;;;;;2.38;1.80;;;25.00;99.10;;;;;;5017788;28;20047;-90
2023/06/23 09:18:34;;;;;;;3.67;1.95;;;25.10;99.20;;;;;;5037058;28;20063;-88
2023/06/23 09:21:01;;;;;;;7.15;1.73;;;25.20;98.90;;;;;;5019602;28;20440;-91
2023/06/23 09:23:30;;;;;;;4.30;2.25;;;25.30;98.80;;;;;;5031539;28;20519;-95
2023/06/23 09:25:57;;;;;;;5.78;1.92;;;26.00;98.30;;;;;;5000364;28;20055;-91
2023/06/23 09:28:31;;;;;;;5.85;2.45;;;25.40;97.80;;;;;;5018396;28;20084;-91
2023/06/23 09:30:59;;;;;;;2.45;1.80;;;25.40;96.70;;;;;;5037272;28;20125;-90
2023/06/23 09:33:27;;;;;;;3.05;1.35;;;25.40;97.20;;;;;;5020433;28;20557;-95
2023/06/23 09:35:54;;;;;;;3.65;1.60;;;25.40;96.80;;;;;;5036022;28;20048;-94
2023/06/23 09:38:22;;;;;;;5.38;1.60;;;25.50;96.80;;;;;;5052864;28;20059;-94
2023/06/23 09:40:59;;;;;;;3.85;1.85;;;25.50;96.40;;;;;;5034703;28;20068;-92
2023/06/23 09:43:25;;;;;;;4.13;1.55;;;25.60;96.20;;;;;;5021439;28;20117;-94
2023/06/23 09:45:52;;;;;;;3.47;1.55;;;25.60;96.10;;;;;;5035447;28;20075;-96
2023/06/23 09:48:19;;;;;;;1.92;1.35;;;25.70;96.00;;;;;;5038240;28;20379;-94
2023/06/23 09:50:45;;;;;;;2.95;1.52;;;25.80;95.60;;;;;;5039376;28;20097;-92
2023/06/23 09:53:19;;;;;;;2.88;1.73;;;25.80;95.20;;;;;;5039850;28;20048;-92
2023/06/23 09:55:45;;;;;;;3.35;1.65;;;26.70;95.40;;;;;;5050690;28;20044;-93
2023/06/23 09:58:13;;;;;;;3.65;1.65;;;25.80;95.10;;;;;;5019405;28;20131;-93
2023/06/23 10:00:39;;;;;;;2.67;1.50;;;25.80;94.90;;;;;;5023682;28;20083;-91
2023/06/23 10:03:05;;;;;;;2.22;1.40;;;25.80;94.70;;;;;;5042295;28;20048;-93
2023/06/23 10:05:35;;;;;;;2.22;1.30;;;25.80;94.30;;;;;;5040345;28;20048;-94
2023/06/23 10:08:13;;;;;;;2.30;1.60;;;25.90;93.80;;;;;;5063404;28;20098;-93
2023/06/23 10:10:45;;;;;;;1.88;1.58;;;25.90;92.60;;;;;;5020803;28;20040;-91
2023/06/23 10:13:12;;;;;;;2.55;1.48;;;26.00;93.20;;;;;;5006089;28;20071;-94
2023/06/23 10:15:42;;;;;;;1.98;1.50;;;26.10;93.20;;;;;;5034531;28;20047;-92
2023/06/23 10:18:11;;;;;;;2.40;1.25;;;26.20;93.10;;;;;;5035737;28;20162;-92
2023/06/23 10:20:38;;;;;;;3.58;1.40;;;26.40;92.60;;;;;;5020800;28;20127;-91
2023/06/23 10:23:04;;;;;;;2.78;1.83;;;26.40;92.50;;;;;;5035610;28;20040;-92
2023/06/23 10:25:32;;;;;;;2.28;1.50;;;26.40;92.80;;;;;;5019012;28;20057;-94
2023/06/23 10:28:03;;;;;;;5.65;2.00;;;26.40;92.60;;;;;;5035435;28;20051;-94
2023/06/23 10:30:30;;;;;;;4.60;2.28;;;26.40;92.60;;;;;;5034865;28;20041;-93
2023/06/23 10:32:57;;;;;;;5.88;2.25;;;26.40;92.70;;;;;;5001134;28;20144;-93
2023/06/23 10:35:24;;;;;;;3.00;1.70;;;26.40;92.60;;;;;;5051621;28;20048;-95
2023/06/23 10:38:00;;;;;;;2.85;1.70;;;26.30;92.90;;;;;;5034023;28;20040;-93
2023/06/23 10:40:26;;;;;;;2.88;1.60;;;26.30;92.40;;;;;;5035566;28;20166;-92
2023/06/23 10:42:56;;;;;;;2.53;1.75;;;26.40;92.80;;;;;;5002341;28;20048;-93
2023/06/23 10:45:22;;;;;;;3.85;2.13;;;26.40;92.40;;;;;;5053888;28;20443;-93
2023/06/23 10:47:48;;;;;;;4.22;1.83;;;27.30;92.70;;;;;;5036657;28;20048;-94
2023/06/23 10:50:14;;;;;;;2.45;1.73;;;26.50;92.30;;;;;;5036477;28;20049;-93
2023/06/23 10:52:42;;;;;;;3.97;2.20;;;26.50;92.20;;;;;;5034534;28;20044;-91
2023/06/23 10:55:33;;;;;;;2.53;2.03;;;26.60;91.90;;;;;;5016584;28;20049;-90
2023/06/23 10:58:10;;;;;;;2.63;2.10;;;27.00;91.90;;;;;;5034958;28;20124;-95
2023/06/23 11:00:36;;;;;;;4.13;2.45;;;26.60;91.70;;;;;;5046663;28;20052;-94
2023/06/23 11:03:04;;;;;;;5.60;3.75;;;26.60;92.40;;;;;;5047057;28;20051;-96
2023/06/23 11:05:30;;;;;;;3.33;2.80;;;26.40;92.30;;;;;;5039137;28;20127;-93
2023/06/23 11:08:01;;;;;;;4.63;3.40;;;26.50;92.70;;;;;;5045874;28;20040;-92
2023/06/23 11:10:48;;;;;;;3.67;2.95;;;26.60;92.90;;;;;;5036958;28;20067;-96
2023/06/23 11:13:14;;;;;;;4.60;2.55;;;26.60;93.00;;;;;;5039182;28;20044;-92
2023/06/23 11:15:41;;;;;;;4.10;2.85;;;26.70;93.00;;;;;;5034780;28;20036;-93
2023/06/23 11:18:06;;;;;;;7.63;2.78;;;26.80;92.80;;;;;;5018255;28;20398;-94
2023/06/23 11:20:37;;;;;;;4.97;3.25;;;26.80;92.90;;;;;;5005664;28;20040;-96
2023/06/23 11:23:07;;;;;;;5.22;3.53;;;26.80;93.00;;;;;;5036622;28;20577;-94
2023/06/23 11:25:38;;;;;;;4.97;3.42;;;26.90;93.30;;;;;;5016832;28;20067;-95
2023/06/23 11:28:23;;;;;;;9.23;3.67;;;26.90;93.30;;;;;;5033870;28;20498;-94
2023/06/23 11:31:11;;;;;;;5.72;3.33;;;27.00;93.30;;;;;;5034735;28;20517;-95
2023/06/23 11:33:38;;;;;;;14.75;3.83;;;27.00;93.20;;;;;;5016803;28;20139;-94
2023/06/23 11:36:07;;;;;;;5.32;3.10;;;27.00;93.60;;;;;;5019233;28;20074;-94
2023/06/23 11:38:35;;;;;;;5.50;3.65;;;27.10;93.40;;;;;;5052600;28;20051;-94
2023/06/23 11:41:02;;;;;;;4.13;3.22;;;27.00;93.30;;;;;;5040165;28;20100;-94
2023/06/23 11:43:38;;;;;;;5.13;3.17;;;27.00;93.10;;;;;;5057254;28;20096;-93
2023/06/23 11:46:14;;;;;;;4.57;3.70;;;26.90;92.70;;;;;;5036812;28;20052;-95
2023/06/23 11:48:41;;;;;;;5.78;2.90;;;26.80;93.30;;;;;;5018624;28;20055;-96
2023/06/23 11:51:09;;;;;;;6.65;3.78;;;26.70;93.40;;;;;;5018606;28;20051;-96
2023/06/23 11:53:36;;;;;;;8.27;3.03;;;26.80;93.20;;;;;;5035333;28;20079;-96
2023/06/23 11:56:03;;;;;;;11.98;8.63;;;26.80;93.10;;;;;;5035663;28;20040;-95
2023/06/23 11:58:35;;;;;;;5.70;3.30;;;26.90;93.00;;;;;;5035770;28;20045;-96
2023/06/23 12:01:02;;;;;;;8.50;3.33;;;27.10;92.20;;;;;;5036556;28;20608;-95
2023/06/23 12:03:32;;;;;;;3.63;2.40;;;27.20;91.90;;;;;;5000630;28;20083;-94
2023/06/23 12:06:02;;;;;;;6.40;2.90;;;27.30;91.60;;;;;;5017455;28;20047;-95
2023/06/23 12:08:40;;;;;;;;;;;27.40;91.30;;;;;;5040254;28;20059;-96
2023/06/23 12:11:06;;;;;;;2.72;2.05;;;27.30;88.70;;;;;;5034973;28;19924;-95
2023/06/23 12:13:39;;;;;;;2.70;2.05;;;27.20;90.70;;;;;;5022113;28;20044;-95
2023/06/23 12:16:08;;;;;;;4.85;2.33;;;27.20;90.10;;;;;;5033471;28;20108;-95
2023/06/23 12:18:46;;;;;;;3.13;2.03;;;27.30;89.20;;;;;;5016620;28;20055;-96
2023/06/23 12:21:14;;;;;;;2.50;1.88;;;27.30;85.90;;;;;;5047594;28;20101;-96
2023/06/23 12:23:40;;;;;;;7.05;1.98;;;27.20;85.80;;;;;;5041905;28;20040;-96
2023/06/23 12:26:08;;;;;;;2.20;1.50;;;25.50;83.90;;;;;;5013321;28;20485;-96
2023/06/23 12:28:40;;;;;;;2.53;1.65;;;27.10;85.20;;;;;;4980712;28;20074;-96
2023/06/23 12:31:07;;;;;;;;;;;27.20;84.00;;;;;;4963412;28;20135;-96
2023/06/23 12:33:50;;;;;;;5.07;2.10;;;27.20;84.10;;;;;;4982743;28;19928;-96
2023/06/23 12:36:17;;;;;;;4.82;2.15;;;28.60;85.10;;;;;;4977936;28;20116;-96
2023/06/23 12:38:53;;;;;;;2.05;1.45;;;27.40;82.30;;;;;;4975734;28;20061;-96
2023/06/23 12:41:26;;;;;;;5.60;1.90;;;26.90;80.00;;;;;;4996714;28;20053;-95
2023/06/23 12:44:12;;;;;;;2.53;1.58;;;27.40;79.60;;;;;;5000317;28;20577;-95
2023/06/23 12:46:38;;;;;;;3.92;1.50;;;27.40;80.00;;;;;;4982033;28;20260;-95
2023/06/23 12:49:10;;;;;;;3.70;1.63;;;27.40;78.20;;;;;;4995592;28;20049;-90
2023/06/23 12:51:40;;;;;;;3.72;1.20;;;27.40;78.10;;;;;;4994932;28;20072;-96
2023/06/23 12:54:09;;;;;;;8.70;1.85;;;27.60;76.60;;;;;;5001486;28;20073;-94
2023/06/23 12:56:36;;;;;;;3.50;2.03;;;27.70;76.00;;;;;;5002594;28;20075;-93
2023/06/23 12:59:02;;;;;;;2.90;1.67;;;27.70;74.50;;;;;;5049842;28;20486;-93